createdAt,value
2018-06-09T00:00:06.076Z,57.80
2018-06-09T00:02:39.341Z,59.60
2018-06-09T00:05:12.018Z,53.20
2018-06-09T00:07:44.738Z,54.50
2018-06-09T00:10:17.443Z,59.70
2018-06-09T00:12:50.552Z,58.70
2018-06-09T00:15:23.307Z,57.40
2018-06-09T00:17:55.680Z,55.20
2018-06-09T00:20:29.132Z,54.90
2018-06-09T00:23:01.616Z,52.20
2018-06-09T00:25:34.380Z,54.80
2018-06-09T00:28:07.128Z,53.30
2018-06-09T00:30:40.164Z,50.00
2018-06-09T00:33:12.749Z,48.50
2018-06-09T00:35:45.329Z,52.30
2018-06-09T00:38:18.035Z,55.20
2018-06-09T00:40:50.748Z,58.90
2018-06-09T00:43:23.937Z,59.30
2018-06-09T00:45:56.886Z,57.60
2018-06-09T00:48:30.572Z,52.10
2018-06-09T00:51:03.008Z,54.60
2018-06-09T00:53:35.754Z,58.50
2018-06-09T00:56:17.478Z,59.10
2018-06-09T00:58:50.434Z,60.10
2018-06-09T01:03:54.985Z,60.00
2018-06-09T01:08:59.424Z,58.80
2018-06-09T01:11:32.528Z,58.90
2018-06-09T01:14:05.567Z,60.20
2018-06-09T01:16:39.804Z,59.90
2018-06-09T01:21:44.447Z,61.20
2018-06-09T01:24:16.939Z,61.30
2018-06-09T01:26:49.907Z,61.70
2018-06-09T01:29:22.769Z,61.90
2018-06-09T01:31:55.424Z,62.00
2018-06-09T01:34:27.861Z,62.30
2018-06-09T01:37:00.475Z,64.00
2018-06-09T01:39:32.921Z,59.90
2018-06-09T01:42:05.564Z,62.00
2018-06-09T01:44:38.112Z,61.00
2018-06-09T01:47:10.771Z,62.80
2018-06-09T01:49:43.398Z,61.90
2018-06-09T01:54:47.837Z,63.90
2018-06-09T01:57:20.372Z,62.10
2018-06-09T01:59:52.657Z,62.30
2018-06-09T02:02:25.326Z,62.30
2018-06-09T02:04:58.057Z,63.50
2018-06-09T02:07:30.823Z,63.90
2018-06-09T02:12:35.564Z,62.60
2018-06-09T02:15:09.061Z,61.80
2018-06-09T02:17:42.633Z,61.50
2018-06-09T02:20:15.924Z,61.80
2018-06-09T02:22:48.408Z,63.20
2018-06-09T02:27:53.326Z,64.40
2018-06-09T02:30:25.745Z,64.70
2018-06-09T02:35:30.351Z,65.70
2018-06-09T02:38:02.989Z,65.70
2018-06-09T02:40:35.718Z,65.40
2018-06-09T02:43:08.905Z,64.90
2018-06-09T02:45:41.971Z,64.30
2018-06-09T02:48:14.844Z,64.70
2018-06-09T02:50:47.189Z,62.60
2018-06-09T02:53:20.561Z,65.30
2018-06-09T02:55:52.966Z,65.10
2018-06-09T02:58:26.129Z,65.60
2018-06-09T03:00:58.924Z,64.40
2018-06-09T03:03:31.573Z,65.10
2018-06-09T03:06:05.045Z,64.60
2018-06-09T03:08:38.062Z,66.50
2018-06-09T03:11:11.104Z,65.70
2018-06-09T03:13:44.013Z,65.90
2018-06-09T03:16:16.501Z,65.40
2018-06-09T03:18:49.420Z,65.80
2018-06-09T03:21:22.144Z,65.30
2018-06-09T03:23:55.015Z,65.90
2018-06-09T03:26:27.783Z,66.80
2018-06-09T03:29:01.047Z,67.30
2018-06-09T03:31:33.879Z,67.20
2018-06-09T03:34:06.993Z,68.20
2018-06-09T03:36:40.311Z,67.00
2018-06-09T03:39:13.300Z,67.50
2018-06-09T03:41:46.375Z,68.80
2018-06-09T03:44:19.309Z,69.00
2018-06-09T03:46:51.880Z,69.50
2018-06-09T03:49:24.219Z,69.70
2018-06-09T03:51:56.688Z,69.60
2018-06-09T03:54:29.257Z,68.80
2018-06-09T03:57:01.869Z,68.30
2018-06-09T03:59:36.127Z,68.40
2018-06-09T04:02:08.599Z,67.90
2018-06-09T04:04:41.269Z,69.00
2018-06-09T04:07:13.675Z,68.50
2018-06-09T04:12:19.511Z,68.60
2018-06-09T04:14:52.545Z,68.80
2018-06-09T04:17:25.511Z,69.20
2018-06-09T04:19:58.712Z,69.40
2018-06-09T04:22:31.481Z,68.60
2018-06-09T04:25:04.361Z,69.70
2018-06-09T04:27:37.728Z,69.90
2018-06-09T04:30:10.593Z,70.50
2018-06-09T04:32:43.928Z,70.60
2018-06-09T04:35:16.750Z,71.00
2018-06-09T04:37:49.385Z,71.40
2018-06-09T04:40:22.107Z,71.60
2018-06-09T04:42:54.770Z,71.30
2018-06-09T04:45:27.166Z,71.60
2018-06-09T04:47:59.914Z,72.10
2018-06-09T04:50:32.685Z,71.60
2018-06-09T04:55:36.933Z,71.90
2018-06-09T04:58:09.622Z,71.80
2018-06-09T05:00:42.632Z,71.90
2018-06-09T05:03:15.415Z,71.90
2018-06-09T05:05:49.008Z,71.80
2018-06-09T05:08:21.713Z,72.30
2018-06-09T05:10:55.647Z,72.20
2018-06-09T05:13:28.209Z,73.00
2018-06-09T05:16:01.261Z,72.40
2018-06-09T05:18:34.460Z,72.20
2018-06-09T05:21:07.619Z,72.60
2018-06-09T05:23:40.344Z,73.00
2018-06-09T05:26:17.117Z,72.90
2018-06-09T05:28:50.030Z,72.00
2018-06-09T05:31:23.204Z,72.60
2018-06-09T05:33:56.924Z,72.90
2018-06-09T05:36:29.748Z,72.80
2018-06-09T05:39:02.814Z,72.60
2018-06-09T05:41:35.659Z,72.40
2018-06-09T05:44:08.661Z,72.30
2018-06-09T05:46:40.824Z,72.30
2018-06-09T05:49:13.708Z,72.90
2018-06-09T05:51:46.593Z,73.00
2018-06-09T05:54:19.310Z,72.50
2018-06-09T05:56:51.885Z,72.70
2018-06-09T05:59:25.206Z,72.90
2018-06-09T06:01:58.835Z,72.90
2018-06-09T06:07:03.572Z,73.10
2018-06-09T06:09:36.045Z,72.30
2018-06-09T06:12:08.433Z,72.40
2018-06-09T06:14:40.853Z,72.20
2018-06-09T06:17:13.502Z,72.50
2018-06-09T06:19:46.518Z,72.00
2018-06-09T06:22:19.231Z,71.40
2018-06-09T06:24:52.457Z,71.00
2018-06-09T06:27:24.949Z,71.30
2018-06-09T06:29:57.787Z,70.50
2018-06-09T06:35:02.841Z,71.10
2018-06-09T06:37:36.003Z,69.60
2018-06-09T06:40:08.983Z,70.60
2018-06-09T06:42:41.741Z,70.60
2018-06-09T06:45:14.515Z,70.80
2018-06-09T06:47:47.573Z,70.30
2018-06-09T06:50:20.190Z,68.90
2018-06-09T06:52:53.004Z,69.60
2018-06-09T06:55:25.757Z,70.30
2018-06-09T06:57:58.096Z,69.60
2018-06-09T07:00:31.617Z,70.90
2018-06-09T07:03:04.189Z,70.20
2018-06-09T07:05:37.572Z,69.60
2018-06-09T07:08:10.485Z,67.90
2018-06-09T07:10:43.328Z,68.70
2018-06-09T07:13:16.178Z,69.90
2018-06-09T07:15:49.149Z,71.00
2018-06-09T07:18:21.776Z,71.50
2018-06-09T07:20:56.194Z,72.30
2018-06-09T07:23:29.100Z,72.00
2018-06-09T07:26:01.945Z,72.20
2018-06-09T07:28:35.835Z,72.80
2018-06-09T07:31:08.942Z,72.20
2018-06-09T07:33:41.912Z,71.20
2018-06-09T07:36:14.965Z,69.50
2018-06-09T07:38:47.545Z,69.60
2018-06-09T07:41:20.174Z,69.30
2018-06-09T07:43:52.882Z,68.50
2018-06-09T07:46:25.867Z,68.50
2018-06-09T07:48:58.446Z,69.20
2018-06-09T07:51:31.405Z,69.70
2018-06-09T07:54:04.432Z,70.40
2018-06-09T07:56:37.141Z,71.50
2018-06-09T07:59:10.084Z,71.80
2018-06-09T08:01:43.096Z,72.00
2018-06-09T08:04:16.911Z,72.40
2018-06-09T08:06:49.852Z,72.80
2018-06-09T08:09:22.321Z,71.80
2018-06-09T08:11:55.465Z,71.50
2018-06-09T08:14:28.485Z,72.00
2018-06-09T08:17:01.493Z,71.70
2018-06-09T08:19:34.292Z,70.70
2018-06-09T08:22:06.976Z,70.70
2018-06-09T08:24:39.630Z,71.60
2018-06-09T08:27:12.420Z,72.20
2018-06-09T08:29:45.642Z,72.80
2018-06-09T08:32:17.936Z,73.90
2018-06-09T08:34:50.943Z,74.20
2018-06-09T08:37:23.957Z,74.80
2018-06-09T08:39:56.868Z,75.10
2018-06-09T08:42:29.837Z,76.00
2018-06-09T08:45:03.183Z,76.30
2018-06-09T08:47:35.758Z,76.90
2018-06-09T08:50:08.252Z,76.80
2018-06-09T08:52:40.756Z,76.60
2018-06-09T08:55:13.817Z,76.20
2018-06-09T08:57:47.170Z,75.60
2018-06-09T09:00:19.664Z,75.20
2018-06-09T09:02:52.296Z,75.30
2018-06-09T09:05:25.766Z,75.40
2018-06-09T09:07:58.864Z,75.60
2018-06-09T09:10:32.163Z,76.00
2018-06-09T09:13:04.980Z,76.00
2018-06-09T09:15:37.606Z,76.30
2018-06-09T09:18:10.570Z,76.60
2018-06-09T09:20:43.068Z,77.10
2018-06-09T09:23:15.512Z,77.30
2018-06-09T09:25:48.445Z,77.60
2018-06-09T09:28:20.820Z,77.70
2018-06-09T09:30:53.583Z,77.60
2018-06-09T09:33:26.242Z,77.20
2018-06-09T09:35:59.335Z,76.80
2018-06-09T09:38:31.947Z,76.60
2018-06-09T09:41:05.115Z,76.30
2018-06-09T09:43:37.607Z,76.10
2018-06-09T09:46:10.331Z,75.70
2018-06-09T09:48:43.178Z,75.50
2018-06-09T09:51:15.760Z,75.20
2018-06-09T09:53:48.072Z,75.20
2018-06-09T09:56:20.852Z,74.50
2018-06-09T09:58:53.598Z,75.10
2018-06-09T10:01:26.030Z,75.30
2018-06-09T10:03:58.539Z,75.60
2018-06-09T10:06:31.333Z,75.70
2018-06-09T10:09:04.439Z,76.10
2018-06-09T10:11:36.988Z,75.90
2018-06-09T10:14:09.787Z,75.80
2018-06-09T10:16:42.993Z,76.00
2018-06-09T10:21:47.344Z,76.80
2018-06-09T10:24:21.197Z,76.80
2018-06-09T10:26:53.968Z,76.80
2018-06-09T10:29:26.227Z,77.00
2018-06-09T10:31:59.192Z,76.40
2018-06-09T10:34:31.932Z,73.90
2018-06-09T10:37:05.241Z,73.20
2018-06-09T10:39:37.685Z,73.40
2018-06-09T10:42:10.746Z,73.40
2018-06-09T10:44:43.317Z,71.60
2018-06-09T10:47:15.927Z,72.90
2018-06-09T10:49:48.974Z,72.30
2018-06-09T10:52:21.862Z,71.10
2018-06-09T10:54:54.541Z,71.60
2018-06-09T10:57:27.209Z,72.00
2018-06-09T11:00:00.522Z,71.60
2018-06-09T11:02:33.139Z,70.50
2018-06-09T11:05:06.213Z,71.20
2018-06-09T11:07:38.733Z,71.00
2018-06-09T11:10:11.442Z,70.60
2018-06-09T11:12:44.210Z,71.70
2018-06-09T11:15:17.168Z,71.90
2018-06-09T11:17:49.778Z,71.20
2018-06-09T11:20:23.011Z,71.90
2018-06-09T11:22:55.582Z,72.20
2018-06-09T11:25:29.238Z,72.90
2018-06-09T11:28:02.045Z,72.80
2018-06-09T11:30:35.576Z,73.50
2018-06-09T11:33:09.017Z,73.10
2018-06-09T11:35:41.777Z,73.00
2018-06-09T11:38:14.634Z,72.20
2018-06-09T11:40:47.624Z,71.60
2018-06-09T11:43:20.036Z,71.10
2018-06-09T11:45:52.734Z,70.90
2018-06-09T11:48:25.800Z,71.20
2018-06-09T11:50:58.217Z,70.90
2018-06-09T11:53:31.181Z,70.80
2018-06-09T11:56:03.957Z,70.40
2018-06-09T11:58:37.132Z,70.90
2018-06-09T12:01:09.862Z,71.20
2018-06-09T12:03:42.739Z,71.00
2018-06-09T12:06:15.831Z,70.50
2018-06-09T12:08:49.462Z,71.00
2018-06-09T12:11:22.080Z,71.30
2018-06-09T12:13:54.701Z,71.80
2018-06-09T12:16:27.621Z,72.40
2018-06-09T12:19:00.560Z,72.80
2018-06-09T12:21:33.311Z,73.50
2018-06-09T12:24:06.184Z,73.90
2018-06-09T12:26:39.778Z,74.40
2018-06-09T12:29:12.480Z,74.60
2018-06-09T12:31:45.257Z,75.10
2018-06-09T12:34:18.619Z,75.60
2018-06-09T12:36:51.621Z,75.70
2018-06-09T12:39:25.050Z,76.20
2018-06-09T12:41:57.805Z,76.60
2018-06-09T12:44:30.407Z,77.20
2018-06-09T12:47:02.926Z,77.00
2018-06-09T12:49:35.619Z,77.40
2018-06-09T12:52:08.136Z,77.40
2018-06-09T12:54:40.987Z,77.00
2018-06-09T12:57:13.856Z,76.80
2018-06-09T12:59:46.301Z,76.70
2018-06-09T13:02:19.588Z,77.20
2018-06-09T13:04:52.173Z,77.50
2018-06-09T13:07:24.748Z,77.70
2018-06-09T13:09:57.262Z,77.60
2018-06-09T13:12:30.046Z,77.30
2018-06-09T13:15:02.350Z,77.20
2018-06-09T13:17:35.185Z,77.30
2018-06-09T13:20:07.489Z,76.40
2018-06-09T13:22:40.221Z,75.00
2018-06-09T13:25:12.573Z,74.80
2018-06-09T13:27:45.847Z,74.20
2018-06-09T13:32:49.884Z,74.60
2018-06-09T13:35:22.636Z,74.30
2018-06-09T13:37:55.521Z,74.00
2018-06-09T13:40:28.053Z,74.80
2018-06-09T13:43:00.593Z,74.70
2018-06-09T13:45:33.017Z,74.50
2018-06-09T13:48:05.488Z,74.10
2018-06-09T13:50:38.085Z,73.90
2018-06-09T13:53:10.696Z,73.50
2018-06-09T13:58:14.371Z,72.50
2018-06-09T14:00:47.007Z,71.30
2018-06-09T14:08:22.565Z,69.10
2018-06-09T14:10:55.146Z,65.90
2018-06-09T14:15:59.457Z,66.60
2018-06-09T14:18:33.213Z,61.30
2018-06-09T14:21:05.762Z,64.60
2018-06-09T14:23:38.009Z,61.70
2018-06-09T14:26:10.718Z,61.40
2018-06-09T14:28:44.509Z,63.90
2018-06-09T14:31:17.353Z,64.20
2018-06-09T14:33:50.061Z,63.70
2018-06-09T14:36:23.392Z,65.30
2018-06-09T14:38:56.069Z,65.90
2018-06-09T14:41:29.080Z,67.40
2018-06-09T14:44:02.070Z,68.10
2018-06-09T14:46:34.835Z,67.00
2018-06-09T14:49:07.747Z,69.10
2018-06-09T14:51:40.385Z,67.60
2018-06-09T14:54:13.089Z,66.40
2018-06-09T14:56:45.971Z,67.60
2018-06-09T14:59:18.605Z,68.20
2018-06-09T15:01:51.189Z,67.10
2018-06-09T15:04:23.902Z,66.70
2018-06-09T15:06:56.413Z,66.20
2018-06-09T15:09:29.336Z,67.80
2018-06-09T15:12:01.929Z,66.70
2018-06-09T15:14:34.901Z,64.80
2018-06-09T15:17:07.489Z,64.20
2018-06-09T15:19:40.165Z,64.30
2018-06-09T15:22:12.728Z,65.70
2018-06-09T15:24:45.352Z,65.30
2018-06-09T15:27:18.257Z,66.90
2018-06-09T15:29:52.146Z,68.90
2018-06-09T15:32:25.069Z,70.00
2018-06-09T15:34:57.382Z,70.30
2018-06-09T15:37:29.836Z,69.10
2018-06-09T15:40:03.163Z,70.20
2018-06-09T15:42:35.628Z,68.00
2018-06-09T15:45:08.734Z,67.10
2018-06-09T15:47:41.442Z,67.10
2018-06-09T15:52:45.989Z,66.10
2018-06-09T15:55:18.642Z,68.90
2018-06-09T15:57:51.402Z,69.90
2018-06-09T16:00:24.365Z,65.30
2018-06-09T16:02:56.634Z,65.90
2018-06-09T16:05:29.601Z,65.80
2018-06-09T16:08:02.389Z,59.70
2018-06-09T16:10:35.335Z,61.80
2018-06-09T16:13:08.014Z,63.10
2018-06-09T16:18:12.077Z,59.40
2018-06-09T16:20:45.164Z,56.80
2018-06-09T16:23:17.497Z,59.20
2018-06-09T16:28:22.230Z,62.60
2018-06-09T16:30:55.984Z,62.70
2018-06-09T16:33:28.924Z,52.30
2018-06-09T16:36:02.409Z,53.00
2018-06-09T16:38:35.205Z,36.50
2018-06-09T16:41:08.373Z,31.30
2018-06-09T16:43:41.656Z,34.00
2018-06-09T16:46:14.656Z,19.90
2018-06-09T16:48:47.317Z,27.10
2018-06-09T16:51:19.922Z,19.00
2018-06-09T16:53:52.713Z,23.20
2018-06-09T16:58:56.837Z,22.30
2018-06-09T17:01:30.418Z,24.40
2018-06-09T17:04:03.115Z,24.00
2018-06-09T17:06:35.768Z,23.60
2018-06-09T17:09:10.735Z,26.40
2018-06-09T17:11:44.431Z,29.70
2018-06-09T17:14:17.181Z,28.50
2018-06-09T17:16:49.761Z,32.40
2018-06-09T17:19:23.114Z,32.00
2018-06-09T17:21:56.817Z,35.10
2018-06-09T17:24:29.812Z,39.10
2018-06-09T17:27:02.518Z,46.00
2018-06-09T17:29:35.541Z,48.00
2018-06-09T17:32:09.944Z,47.80
2018-06-09T17:34:42.661Z,41.90
2018-06-09T17:37:15.529Z,43.10
2018-06-09T17:39:48.345Z,43.60
2018-06-09T17:42:20.714Z,46.50
2018-06-09T17:44:53.476Z,51.10
2018-06-09T17:47:26.187Z,53.30
2018-06-09T17:49:59.460Z,55.80
2018-06-09T17:52:32.220Z,53.20
2018-06-09T17:55:05.227Z,47.10
2018-06-09T17:57:37.805Z,44.10
2018-06-09T18:00:10.552Z,47.20
2018-06-09T18:02:43.728Z,36.80
2018-06-09T18:05:16.240Z,33.60
2018-06-09T18:07:48.934Z,40.50
2018-06-09T18:10:21.392Z,42.20
2018-06-09T18:12:54.198Z,40.20
2018-06-09T18:15:26.891Z,45.10
2018-06-09T18:18:00.157Z,49.60
2018-06-09T18:20:32.973Z,45.10
2018-06-09T18:23:06.143Z,48.50
2018-06-09T18:25:38.763Z,50.20
2018-06-09T18:28:11.748Z,46.00
2018-06-09T18:33:17.154Z,49.00
2018-06-09T18:35:50.232Z,41.50
2018-06-09T18:38:22.556Z,38.40
2018-06-09T18:40:55.193Z,32.20
2018-06-09T18:43:27.911Z,33.10
2018-06-09T18:46:01.071Z,30.40
2018-06-09T18:48:33.683Z,29.60
2018-06-09T18:51:06.335Z,29.70
2018-06-09T18:53:39.198Z,37.70
2018-06-09T18:56:12.190Z,24.40
2018-06-09T18:58:45.494Z,25.70
2018-06-09T19:01:18.390Z,27.80
2018-06-09T19:03:51.097Z,23.10
2018-06-09T19:06:23.740Z,28.30
2018-06-09T19:08:56.547Z,23.00
2018-06-09T19:11:29.091Z,29.70
2018-06-09T19:14:02.525Z,20.40
2018-06-09T19:16:37.067Z,21.10
2018-06-09T19:19:10.244Z,16.50
2018-06-09T19:21:42.900Z,22.10
2018-06-09T19:24:15.895Z,21.00
2018-06-09T19:26:49.169Z,19.30
2018-06-09T19:29:22.354Z,18.00
2018-06-09T19:31:54.839Z,8.90
2018-06-09T19:34:29.147Z,16.30
2018-06-09T19:37:02.315Z,16.00
2018-06-09T19:39:35.062Z,17.60
2018-06-09T19:42:07.424Z,11.90
2018-06-09T19:47:12.264Z,17.50
2018-06-09T19:49:45.175Z,15.50
2018-06-09T19:52:18.192Z,17.80
2018-06-09T19:54:51.085Z,16.50
2018-06-09T19:57:24.010Z,17.10
2018-06-09T19:59:56.808Z,18.00
2018-06-09T20:02:29.148Z,23.10
2018-06-09T20:05:02.188Z,22.80
2018-06-09T20:07:34.815Z,25.10
2018-06-09T20:10:07.472Z,28.70
2018-06-09T20:12:40.800Z,30.80
2018-06-09T20:15:13.483Z,28.50
2018-06-09T20:17:47.492Z,31.10
2018-06-09T20:20:20.296Z,28.70
2018-06-09T20:22:52.924Z,28.70
2018-06-09T20:25:26.005Z,27.00
2018-06-09T20:27:58.387Z,29.80
2018-06-09T20:30:31.031Z,28.10
2018-06-09T20:33:03.510Z,27.70
2018-06-09T20:35:37.385Z,35.80
2018-06-09T20:38:10.602Z,28.80
2018-06-09T20:40:43.465Z,28.30
2018-06-09T20:43:17.048Z,26.80
2018-06-09T20:45:49.764Z,28.30
2018-06-09T20:48:24.260Z,28.20
2018-06-09T20:50:56.790Z,31.20
2018-06-09T20:53:29.296Z,32.50
2018-06-09T20:56:02.589Z,36.30
2018-06-09T20:58:40.078Z,31.90
2018-06-09T21:01:12.835Z,29.70
2018-06-09T21:03:45.795Z,28.90
2018-06-09T21:06:18.493Z,28.80
2018-06-09T21:08:51.584Z,25.10
2018-06-09T21:11:24.800Z,25.40
2018-06-09T21:13:57.476Z,24.40
2018-06-09T21:16:30.483Z,28.40
2018-06-09T21:19:03.324Z,31.30
2018-06-09T21:21:36.257Z,27.90
2018-06-09T21:24:09.144Z,28.60
2018-06-09T21:26:48.604Z,29.20
2018-06-09T21:29:26.423Z,23.80
2018-06-09T21:32:02.722Z,25.60
2018-06-09T21:34:48.778Z,26.40
2018-06-09T21:37:25.604Z,26.80
2018-06-09T21:40:06.081Z,25.80
2018-06-09T21:42:42.489Z,26.10
2018-06-09T21:45:19.769Z,23.60
2018-06-09T21:47:52.476Z,22.60
2018-06-09T21:52:57.516Z,25.30
2018-06-09T21:55:30.031Z,29.40
2018-06-09T21:58:02.834Z,28.80
2018-06-09T22:00:35.731Z,21.30
2018-06-09T22:03:08.930Z,24.40
2018-06-09T22:05:42.295Z,21.00
2018-06-09T22:08:15.612Z,21.10
2018-06-09T22:10:48.443Z,24.40
2018-06-09T22:13:21.521Z,17.60
2018-06-09T22:15:54.193Z,22.40
2018-06-09T22:18:27.297Z,23.60
2018-06-09T22:21:00.134Z,21.80
2018-06-09T22:23:33.754Z,18.30
2018-06-09T22:26:11.061Z,20.00
2018-06-09T22:28:43.740Z,18.50
2018-06-09T22:31:17.427Z,21.60
2018-06-09T22:33:49.807Z,20.40
2018-06-09T22:36:22.686Z,21.80
2018-06-09T22:41:26.893Z,21.00
2018-06-09T22:43:59.734Z,26.00
2018-06-09T22:46:32.400Z,29.60
2018-06-09T22:49:05.229Z,32.40
2018-06-09T22:54:10.140Z,32.50
2018-06-09T22:56:42.620Z,36.60
2018-06-09T22:59:15.397Z,40.50
2018-06-09T23:01:48.340Z,44.20
2018-06-09T23:04:20.957Z,47.50
2018-06-09T23:06:53.534Z,51.50
2018-06-09T23:09:26.334Z,53.80
2018-06-09T23:11:59.009Z,54.80
2018-06-09T23:14:31.484Z,58.00
2018-06-09T23:17:04.729Z,58.70
2018-06-09T23:19:37.972Z,63.30
2018-06-09T23:22:10.677Z,67.10
2018-06-09T23:24:44.082Z,65.60
2018-06-09T23:27:16.897Z,64.30
2018-06-09T23:29:50.033Z,64.00
2018-06-09T23:32:22.789Z,64.60
2018-06-09T23:34:57.919Z,64.70
2018-06-09T23:37:30.911Z,62.90
2018-06-09T23:40:04.472Z,64.40
2018-06-09T23:42:37.756Z,65.60
2018-06-09T23:47:41.105Z,67.80
2018-06-09T23:50:13.764Z,68.90
2018-06-09T23:52:46.310Z,64.90
2018-06-09T23:55:19.406Z,66.30
2018-06-09T23:57:52.148Z,66.70
